Time;durP1;ratioP1;P1;durP2;ratioP2;P2;SDS_P1;SDS_P2;PMS_P1;PMS_P2;Temp;Humidity;BMP_temperature;BMP_pressure;BME280_temperature;BME280_humidity;BME280_pressure;Samples;Min_cycle;Max_cycle;Signal;HPM_P1;HPM_P2
2023/11/07 00:00:59;;;;;;;;;;;21.40;45.30;;;;;;3051486;19;4580;-29
2023/11/07 00:02:00;;;;;;;;;;;21.40;45.30;;;;;;3051792;19;4631;-29
2023/11/07 00:03:01;;;;;;;;;;;21.40;45.30;;;;;;3051619;19;4594;-30
2023/11/07 00:04:02;;;;;;;;;;;21.40;45.30;;;;;;3051936;19;4623;-30
2023/11/07 00:05:03;;;;;;;;;;;21.40;45.40;;;;;;3051512;19;4667;-30
2023/11/07 00:06:04;;;;;;;;;;;21.40;45.40;;;;;;3051664;19;4748;-30
2023/11/07 00:07:04;;;;;;;;;;;21.40;46.00;;;;;;3051744;19;4597;-30
2023/11/07 00:08:05;;;;;;;;;;;21.40;45.40;;;;;;3052102;19;4612;-30
2023/11/07 00:09:07;;;;;;;;;;;21.40;45.30;;;;;;3051967;19;4569;-29
2023/11/07 00:10:08;;;;;;;;;;;21.40;45.30;;;;;;3051393;19;4529;-29
2023/11/07 00:11:09;;;;;;;;;;;21.40;45.40;;;;;;3051721;19;4539;-29
2023/11/07 00:12:09;;;;;;;;;;;21.40;45.40;;;;;;3052056;19;4623;-29
2023/11/07 00:13:10;;;;;;;;;;;21.40;45.40;;;;;;3051943;19;3946;-30
2023/11/07 00:14:12;;;;;;;;;;;21.40;45.40;;;;;;3051382;19;4572;-30
2023/11/07 00:15:13;;;;;;;;;;;21.40;45.40;;;;;;3051847;19;4494;-29
2023/11/07 00:16:14;;;;;;;;;;;21.40;45.40;;;;;;3051367;19;4696;-29
2023/11/07 00:17:15;;;;;;;;;;;21.40;45.40;;;;;;3052537;19;4774;-29
2023/11/07 00:18:15;;;;;;;;;;;21.40;45.40;;;;;;3052663;19;4721;-30
2023/11/07 00:19:16;;;;;;;;;;;21.40;45.50;;;;;;3052463;19;4676;-29
2023/11/07 00:20:17;;;;;;;;;;;21.40;45.50;;;;;;3052057;19;4651;-29
2023/11/07 00:21:17;;;;;;;;;;;21.30;45.40;;;;;;3052198;19;4611;-30
2023/11/07 00:22:18;;;;;;;;;;;21.40;45.50;;;;;;3053162;19;4617;-29
2023/11/07 00:23:19;;;;;;;;;;;21.30;45.50;;;;;;3051458;19;4508;-30
2023/11/07 00:24:19;;;;;;;;;;;21.40;45.50;;;;;;3051326;19;4661;-30
2023/11/07 00:25:20;;;;;;;;;;;21.40;45.50;;;;;;3051473;19;4595;-30
2023/11/07 00:26:21;;;;;;;;;;;21.30;45.50;;;;;;3050997;19;4519;-30
2023/11/07 00:27:23;;;;;;;;;;;21.30;45.50;;;;;;3052559;19;4834;-29
2023/11/07 00:28:25;;;;;;;;;;;21.40;45.50;;;;;;3052268;19;4666;-30
2023/11/07 00:29:28;;;;;;;;;;;21.40;45.50;;;;;;3052325;19;4632;-30
2023/11/07 00:30:28;;;;;;;;;;;21.30;45.50;;;;;;3052637;19;4629;-29
2023/11/07 00:31:29;;;;;;;;;;;21.30;45.50;;;;;;3051926;19;4699;-30
2023/11/07 00:32:30;;;;;;;;;;;21.30;45.50;;;;;;3052591;19;4605;-29
2023/11/07 00:33:30;;;;;;;;;;;21.30;45.50;;;;;;3052322;19;4655;-30
2023/11/07 00:34:31;;;;;;;;;;;21.30;45.50;;;;;;3050828;19;4567;-30
2023/11/07 00:35:32;;;;;;;;;;;21.30;45.50;;;;;;3051644;19;4727;-30
2023/11/07 00:36:33;;;;;;;;;;;21.30;45.60;;;;;;3051432;19;4563;-30
2023/11/07 00:37:34;;;;;;;;;;;21.30;45.60;;;;;;3052890;19;4749;-30
2023/11/07 00:38:35;;;;;;;;;;;21.30;45.60;;;;;;3052566;19;4735;-30
2023/11/07 00:39:36;;;;;;;;;;;21.30;45.60;;;;;;3051600;19;4940;-29
2023/11/07 00:40:36;;;;;;;;;;;21.30;45.60;;;;;;3051825;19;4576;-29
2023/11/07 00:41:37;;;;;;;;;;;21.30;45.60;;;;;;3050827;19;4694;-29
2023/11/07 00:42:38;;;;;;;;;;;21.30;45.50;;;;;;3051599;19;4786;-30
2023/11/07 00:43:43;;;;;;;;;;;21.30;45.60;;;;;;3052229;19;4666;-30
2023/11/07 00:44:44;;;;;;;;;;;21.30;45.60;;;;;;3051217;19;4671;-30
2023/11/07 00:45:44;;;;;;;;;;;21.30;45.60;;;;;;3051746;19;5039;-30
2023/11/07 00:46:45;;;;;;;;;;;21.30;45.60;;;;;;3051973;19;4622;-30
2023/11/07 00:47:46;;;;;;;;;;;21.30;45.60;;;;;;3051793;19;4569;-30
2023/11/07 00:48:47;;;;;;;;;;;21.30;45.50;;;;;;3052303;19;4722;-30
2023/11/07 00:49:47;;;;;;;;;;;21.30;45.60;;;;;;3051830;19;5201;-30
2023/11/07 00:50:49;;;;;;;;;;;21.30;45.60;;;;;;3052043;19;4708;-30
2023/11/07 00:51:51;;;;;;;;;;;21.30;45.70;;;;;;3050783;19;4668;-30
2023/11/07 00:52:51;;;;;;;;;;;21.30;45.60;;;;;;3050725;19;4872;-30
2023/11/07 00:53:52;;;;;;;;;;;21.30;45.60;;;;;;3051638;19;4607;-30
2023/11/07 00:54:53;;;;;;;;;;;21.30;45.60;;;;;;3052249;19;4578;-30
2023/11/07 00:55:54;;;;;;;;;;;21.30;45.60;;;;;;3051895;19;4457;-30
2023/11/07 00:56:54;;;;;;;;;;;21.30;45.50;;;;;;3052451;19;4657;-30
2023/11/07 00:57:55;;;;;;;;;;;21.30;45.60;;;;;;3051076;19;4583;-30
2023/11/07 00:58:56;;;;;;;;;;;21.30;45.60;;;;;;3051676;19;4612;-30
2023/11/07 00:59:57;;;;;;;;;;;21.30;45.60;;;;;;3051529;19;4577;-29
2023/11/07 01:00:57;;;;;;;;;;;21.30;45.60;;;;;;3051155;19;4582;-30
2023/11/07 01:01:58;;;;;;;;;;;21.30;45.60;;;;;;3051243;19;4610;-30
2023/11/07 01:02:59;;;;;;;;;;;21.30;45.60;;;;;;3052238;19;4569;-29
2023/11/07 01:04:00;;;;;;;;;;;21.30;45.60;;;;;;3055488;19;4726;-30
2023/11/07 01:05:02;;;;;;;;;;;21.30;45.60;;;;;;3055221;19;4564;-30
2023/11/07 01:06:03;;;;;;;;;;;21.30;45.60;;;;;;3054092;19;4597;-29
2023/11/07 01:07:03;;;;;;;;;;;21.30;45.60;;;;;;3054887;19;4577;-30
2023/11/07 01:08:04;;;;;;;;;;;21.30;45.60;;;;;;3055111;19;4909;-30
2023/11/07 01:09:05;;;;;;;;;;;21.30;45.60;;;;;;3054761;19;4570;-27
2023/11/07 01:10:07;;;;;;;;;;;21.30;45.50;;;;;;3054865;19;4630;-26
2023/11/07 01:11:07;;;;;;;;;;;21.30;45.60;;;;;;3053302;19;4625;-27
2023/11/07 01:12:08;;;;;;;;;;;21.30;45.60;;;;;;3055182;19;4672;-27
2023/11/07 01:13:09;;;;;;;;;;;21.30;45.50;;;;;;3054788;19;5081;-27
2023/11/07 01:14:09;;;;;;;;;;;21.30;45.70;;;;;;3054125;19;4553;-27
2023/11/07 01:15:10;;;;;;;;;;;21.30;45.60;;;;;;3055264;19;909;-27
2023/11/07 01:16:11;;;;;;;;;;;21.30;45.60;;;;;;3054121;19;4618;-27
2023/11/07 01:17:12;;;;;;;;;;;21.20;45.50;;;;;;3054048;19;4745;-27
2023/11/07 01:18:12;;;;;;;;;;;21.30;45.60;;;;;;3054635;19;4640;-27
2023/11/07 01:19:16;;;;;;;;;;;21.30;45.70;;;;;;3054119;19;4912;-29
2023/11/07 01:20:16;;;;;;;;;;;21.30;45.70;;;;;;3054863;19;4538;-27
2023/11/07 01:21:17;;;;;;;;;;;21.30;45.70;;;;;;3054017;19;4680;-27
2023/11/07 01:22:18;;;;;;;;;;;21.20;45.50;;;;;;3053772;19;4734;-27
2023/11/07 01:23:19;;;;;;;;;;;21.20;45.60;;;;;;3054573;19;4755;-27
2023/11/07 01:24:19;;;;;;;;;;;21.20;45.70;;;;;;3054079;19;4670;-27
2023/11/07 01:25:20;;;;;;;;;;;21.20;45.60;;;;;;3053682;19;4695;-27
2023/11/07 01:26:22;;;;;;;;;;;21.20;45.60;;;;;;3054534;19;4698;-27
2023/11/07 01:27:22;;;;;;;;;;;21.20;45.60;;;;;;3053952;19;4545;-27
2023/11/07 01:28:23;;;;;;;;;;;21.20;45.60;;;;;;3054698;19;4680;-27
2023/11/07 01:29:24;;;;;;;;;;;21.20;45.60;;;;;;3053959;19;4720;-27
2023/11/07 01:30:24;;;;;;;;;;;21.20;45.60;;;;;;3054479;19;4520;-27
2023/11/07 01:31:25;;;;;;;;;;;21.20;45.60;;;;;;3053155;19;4656;-27
2023/11/07 01:32:25;;;;;;;;;;;21.20;45.60;;;;;;3052818;19;4645;-27
2023/11/07 01:33:26;;;;;;;;;;;21.20;45.70;;;;;;3054035;19;4656;-27
2023/11/07 01:34:27;;;;;;;;;;;21.20;45.60;;;;;;3053530;19;4663;-27
2023/11/07 01:35:27;;;;;;;;;;;21.20;45.60;;;;;;3053454;19;4552;-27
2023/11/07 01:36:28;;;;;;;;;;;21.20;45.60;;;;;;3053642;19;4781;-27
2023/11/07 01:37:29;;;;;;;;;;;21.10;45.60;;;;;;3054263;19;4638;-27
2023/11/07 01:38:30;;;;;;;;;;;21.20;45.70;;;;;;3053711;19;4540;-27
2023/11/07 01:39:31;;;;;;;;;;;21.10;45.60;;;;;;3053293;19;4696;-27
2023/11/07 01:40:31;;;;;;;;;;;21.20;45.70;;;;;;3053641;19;4659;-27
2023/11/07 01:41:33;;;;;;;;;;;21.20;45.70;;;;;;3054236;19;4645;-27
2023/11/07 01:42:43;;;;;;;;;;;21.20;45.70;;;;;;3054063;19;4699;-27
2023/11/07 01:43:46;;;;;;;;;;;21.10;45.60;;;;;;3053175;19;4602;-27
2023/11/07 01:44:50;;;;;;;;;;;21.10;45.60;;;;;;3053840;19;4666;-27
2023/11/07 01:45:51;;;;;;;;;;;21.20;45.70;;;;;;3052970;19;4673;-27
2023/11/07 01:46:51;;;;;;;;;;;21.20;45.70;;;;;;3052259;19;4579;-27
2023/11/07 01:47:52;;;;;;;;;;;21.20;46.40;;;;;;3051887;19;4579;-26
2023/11/07 01:48:53;;;;;;;;;;;21.10;45.60;;;;;;3052183;19;4645;-27
2023/11/07 01:49:54;;;;;;;;;;;21.20;45.70;;;;;;3051946;19;4645;-27
2023/11/07 01:50:55;;;;;;;;;;;21.20;45.70;;;;;;3052363;19;4669;-27
2023/11/07 01:51:57;;;;;;;;;;;21.20;45.70;;;;;;3053401;19;4605;-27
2023/11/07 01:52:58;;;;;;;;;;;21.20;45.70;;;;;;3053336;19;4629;-27
2023/11/07 01:53:58;;;;;;;;;;;21.20;45.70;;;;;;3052319;19;4627;-27
2023/11/07 01:54:59;;;;;;;;;;;21.20;45.70;;;;;;3053394;19;4670;-27
2023/11/07 01:56:00;;;;;;;;;;;21.20;45.80;;;;;;3053134;19;4677;-26
2023/11/07 01:57:00;;;;;;;;;;;21.10;45.70;;;;;;3052977;19;4625;-27
2023/11/07 01:58:01;;;;;;;;;;;21.20;45.70;;;;;;3052716;19;4593;-26
2023/11/07 01:59:02;;;;;;;;;;;21.20;45.70;;;;;;3053682;19;4664;-27
2023/11/07 02:00:12;;;;;;;;;;;21.10;45.70;;;;;;3054342;19;4565;-27
2023/11/07 02:01:13;;;;;;;;;;;21.10;45.80;;;;;;3053895;19;4767;-27
2023/11/07 02:02:17;;;;;;;;;;;21.10;45.70;;;;;;3053357;19;4607;-27
2023/11/07 02:03:18;;;;;;;;;;;21.10;45.80;;;;;;3053043;19;4578;-27
2023/11/07 02:04:19;;;;;;;;;;;21.10;45.70;;;;;;3052418;19;4649;-27
2023/11/07 02:05:20;;;;;;;;;;;21.10;45.80;;;;;;3053407;19;4876;-27
2023/11/07 02:06:21;;;;;;;;;;;21.10;45.80;;;;;;3051050;19;4740;-27
2023/11/07 02:07:21;;;;;;;;;;;21.10;45.80;;;;;;3051596;19;4554;-27
2023/11/07 02:08:23;;;;;;;;;;;21.10;45.70;;;;;;3053042;19;4681;-27
2023/11/07 02:09:23;;;;;;;;;;;21.10;45.70;;;;;;3051780;19;4674;-27
2023/11/07 02:10:24;;;;;;;;;;;21.10;45.80;;;;;;3052075;19;4644;-27
2023/11/07 02:11:24;;;;;;;;;;;21.10;45.80;;;;;;3052553;19;4651;-27
2023/11/07 02:12:25;;;;;;;;;;;21.10;45.70;;;;;;3051749;19;4724;-27
2023/11/07 02:13:26;;;;;;;;;;;21.10;45.70;;;;;;3052456;19;4749;-27
2023/11/07 02:14:30;;;;;;;;;;;21.10;45.70;;;;;;3052076;19;4635;-27
2023/11/07 02:15:31;;;;;;;;;;;21.10;45.80;;;;;;3052699;19;4595;-27
2023/11/07 02:16:32;;;;;;;;;;;21.10;45.80;;;;;;3052751;19;4717;-27
2023/11/07 02:17:32;;;;;;;;;;;21.00;45.70;;;;;;3053447;19;4675;-27
2023/11/07 02:18:33;;;;;;;;;;;21.10;45.80;;;;;;3052517;19;18139;-27
2023/11/07 02:19:34;;;;;;;;;;;21.10;45.80;;;;;;3054029;19;4543;-27
2023/11/07 02:20:38;;;;;;;;;;;21.10;45.80;;;;;;3052746;19;4678;-27
2023/11/07 02:21:39;;;;;;;;;;;21.10;45.80;;;;;;3052561;19;4598;-27
2023/11/07 02:22:47;;;;;;;;;;;21.00;45.80;;;;;;3053102;19;4641;-27
2023/11/07 02:23:48;;;;;;;;;;;21.10;45.80;;;;;;3052665;19;4529;-27
2023/11/07 02:24:48;;;;;;;;;;;21.10;45.80;;;;;;3052900;19;4649;-27
2023/11/07 02:25:52;;;;;;;;;;;21.10;45.80;;;;;;3053824;19;4672;-27
2023/11/07 02:26:56;;;;;;;;;;;21.10;45.80;;;;;;3054338;19;4605;-26
2023/11/07 02:27:56;;;;;;;;;;;21.00;45.70;;;;;;3052300;19;4636;-27
2023/11/07 02:28:57;;;;;;;;;;;21.10;45.80;;;;;;3052411;19;4595;-28
2023/11/07 02:29:58;;;;;;;;;;;21.10;45.80;;;;;;3053469;19;5246;-27
2023/11/07 02:30:58;;;;;;;;;;;21.10;45.80;;;;;;3052468;19;4811;-30
2023/11/07 02:31:59;;;;;;;;;;;21.10;45.80;;;;;;3054418;19;4601;-30
2023/11/07 02:33:04;;;;;;;;;;;21.10;45.80;;;;;;3053980;19;4573;-29
2023/11/07 02:34:05;;;;;;;;;;;21.00;45.80;;;;;;3054124;19;4589;-30
2023/11/07 02:35:07;;;;;;;;;;;21.00;45.70;;;;;;3053101;19;4585;-30
2023/11/07 02:36:08;;;;;;;;;;;21.00;45.80;;;;;;3052941;19;4832;-29
2023/11/07 02:37:08;;;;;;;;;;;21.00;45.70;;;;;;3052391;19;4542;-29
2023/11/07 02:38:10;;;;;;;;;;;21.00;45.70;;;;;;3053547;19;4566;-29
2023/11/07 02:39:12;;;;;;;;;;;21.10;45.80;;;;;;3052200;19;4523;-30
2023/11/07 02:40:13;;;;;;;;;;;21.00;45.80;;;;;;3052750;19;4586;-27
2023/11/07 02:41:14;;;;;;;;;;;21.10;45.80;;;;;;3053260;19;893;-27
2023/11/07 02:42:15;;;;;;;;;;;21.00;45.70;;;;;;3052875;19;4615;-27
2023/11/07 02:43:16;;;;;;;;;;;21.10;45.90;;;;;;3054036;19;4682;-27
2023/11/07 02:44:17;;;;;;;;;;;21.00;45.80;;;;;;3053002;19;4863;-27
2023/11/07 02:45:19;;;;;;;;;;;21.00;45.70;;;;;;3052342;19;4905;-27
2023/11/07 02:46:21;;;;;;;;;;;21.00;45.80;;;;;;3052518;19;4648;-27
2023/11/07 02:47:22;;;;;;;;;;;21.00;45.80;;;;;;3053079;19;4541;-27
2023/11/07 02:48:24;;;;;;;;;;;21.00;45.70;;;;;;3050883;19;4640;-27
2023/11/07 02:49:26;;;;;;;;;;;21.00;45.70;;;;;;3053677;19;4618;-27
2023/11/07 02:50:27;;;;;;;;;;;21.00;45.70;;;;;;3053391;19;4581;-27
2023/11/07 02:51:29;;;;;;;;;;;21.00;45.70;;;;;;3053742;19;4655;-27
2023/11/07 02:52:31;;;;;;;;;;;21.00;45.70;;;;;;3052751;19;4673;-27
2023/11/07 02:53:32;;;;;;;;;;;21.00;46.30;;;;;;3052897;19;4671;-27
2023/11/07 02:54:34;;;;;;;;;;;21.00;45.70;;;;;;3052606;19;4695;-27
2023/11/07 02:55:36;;;;;;;;;;;21.00;45.70;;;;;;3052597;19;4502;-27
2023/11/07 02:56:37;;;;;;;;;;;21.00;45.70;;;;;;3053117;19;4666;-27
2023/11/07 02:57:38;;;;;;;;;;;21.00;45.70;;;;;;3053368;19;4640;-27
2023/11/07 02:58:38;;;;;;;;;;;21.00;45.80;;;;;;3053287;19;4801;-27
2023/11/07 02:59:39;;;;;;;;;;;21.00;45.80;;;;;;3052711;19;4677;-27
2023/11/07 03:00:40;;;;;;;;;;;21.00;45.70;;;;;;3052577;19;4458;-27
2023/11/07 03:01:41;;;;;;;;;;;21.00;45.80;;;;;;3053210;19;4823;-27
2023/11/07 03:02:42;;;;;;;;;;;21.00;45.70;;;;;;3053580;19;4746;-27
2023/11/07 03:03:43;;;;;;;;;;;21.00;45.80;;;;;;3053444;19;4695;-27
2023/11/07 03:04:44;;;;;;;;;;;21.00;45.90;;;;;;3053431;19;4649;-27
2023/11/07 03:05:45;;;;;;;;;;;21.00;45.80;;;;;;3051583;19;4646;-27
2023/11/07 03:06:45;;;;;;;;;;;21.00;45.80;;;;;;3052096;19;4674;-27
2023/11/07 03:07:46;;;;;;;;;;;21.00;45.80;;;;;;3051496;19;4630;-27
2023/11/07 03:08:46;;;;;;;;;;;21.00;45.90;;;;;;3053090;19;4622;-27
2023/11/07 03:09:47;;;;;;;;;;;21.00;45.80;;;;;;3053683;19;4620;-27
2023/11/07 03:10:48;;;;;;;;;;;21.00;45.80;;;;;;3053336;19;4631;-27
2023/11/07 03:11:48;;;;;;;;;;;21.00;45.80;;;;;;3053628;19;4510;-27
2023/11/07 03:12:49;;;;;;;;;;;21.00;45.90;;;;;;3053515;19;4643;-27
2023/11/07 03:13:50;;;;;;;;;;;21.00;45.80;;;;;;3052681;19;4768;-27
2023/11/07 03:14:50;;;;;;;;;;;20.90;45.80;;;;;;3052947;19;4632;-27
2023/11/07 03:15:51;;;;;;;;;;;21.00;45.90;;;;;;3053650;19;4608;-27
2023/11/07 03:16:51;;;;;;;;;;;21.00;45.80;;;;;;3052996;19;4670;-27
2023/11/07 03:17:52;;;;;;;;;;;21.00;45.80;;;;;;3052639;19;4664;-27
2023/11/07 03:18:53;;;;;;;;;;;21.00;45.80;;;;;;3053871;19;4706;-27
2023/11/07 03:19:53;;;;;;;;;;;20.90;45.70;;;;;;3052856;19;20828;-27
2023/11/07 03:20:54;;;;;;;;;;;21.00;45.80;;;;;;3053609;19;4583;-27
2023/11/07 03:21:54;;;;;;;;;;;21.00;45.80;;;;;;3053179;19;4629;-27
2023/11/07 03:22:55;;;;;;;;;;;21.00;45.90;;;;;;3052677;19;4586;-27
2023/11/07 03:23:56;;;;;;;;;;;20.90;45.90;;;;;;3053618;19;4625;-27
2023/11/07 03:24:56;;;;;;;;;;;21.00;45.90;;;;;;3052316;19;4865;-27
2023/11/07 03:25:57;;;;;;;;;;;21.00;45.90;;;;;;3052464;19;4621;-27
2023/11/07 03:26:58;;;;;;;;;;;21.00;45.90;;;;;;3052895;19;4743;-27
2023/11/07 03:27:58;;;;;;;;;;;21.00;45.90;;;;;;3052908;19;4795;-27
2023/11/07 03:28:59;;;;;;;;;;;21.00;45.80;;;;;;3051843;19;4592;-27
2023/11/07 03:29:59;;;;;;;;;;;21.00;45.90;;;;;;3052773;19;4632;-27
2023/11/07 03:31:00;;;;;;;;;;;20.90;45.80;;;;;;3053274;19;4743;-27
2023/11/07 03:32:01;;;;;;;;;;;20.90;45.90;;;;;;3053627;19;4645;-26
2023/11/07 03:33:01;;;;;;;;;;;21.00;45.90;;;;;;3053341;19;4610;-27
2023/11/07 03:34:02;;;;;;;;;;;20.90;45.80;;;;;;3053831;19;4563;-27
2023/11/07 03:35:04;;;;;;;;;;;20.90;45.80;;;;;;3053680;19;4631;-27
2023/11/07 03:36:05;;;;;;;;;;;21.00;46.10;;;;;;3053671;19;4575;-27
2023/11/07 03:37:06;;;;;;;;;;;21.00;46.10;;;;;;3052396;19;4589;-27
2023/11/07 03:38:06;;;;;;;;;;;21.10;46.10;;;;;;3050848;19;20773;-28
2023/11/07 03:39:07;;;;;;;;;;;21.10;45.90;;;;;;3052459;19;4771;-27
2023/11/07 03:40:08;;;;;;;;;;;21.30;45.80;;;;;;3052245;19;4777;-27
2023/11/07 03:41:12;;;;;;;;;;;21.40;45.50;;;;;;3052684;19;4547;-27
2023/11/07 03:42:12;;;;;;;;;;;21.50;45.20;;;;;;3052796;19;4646;-26
2023/11/07 03:43:13;;;;;;;;;;;21.60;45.00;;;;;;3052775;19;4495;-27
2023/11/07 03:44:13;;;;;;;;;;;21.60;44.90;;;;;;3053243;19;4784;-27
2023/11/07 03:45:14;;;;;;;;;;;21.70;44.80;;;;;;3053551;19;4657;-27
2023/11/07 03:46:15;;;;;;;;;;;21.60;44.70;;;;;;3053187;19;4567;-27
2023/11/07 03:47:17;;;;;;;;;;;21.60;44.70;;;;;;3052921;19;4667;-27
2023/11/07 03:48:18;;;;;;;;;;;21.70;44.70;;;;;;3052985;19;4639;-27
2023/11/07 03:49:19;;;;;;;;;;;21.70;44.70;;;;;;3051625;19;4625;-27
2023/11/07 03:50:19;;;;;;;;;;;21.70;44.70;;;;;;3052414;19;4741;-27
2023/11/07 03:51:20;;;;;;;;;;;21.70;44.70;;;;;;3052469;19;4512;-27
2023/11/07 03:52:21;;;;;;;;;;;21.60;44.60;;;;;;3053171;19;4651;-27
2023/11/07 03:53:21;;;;;;;;;;;21.70;44.70;;;;;;3053563;19;4624;-27
2023/11/07 03:54:23;;;;;;;;;;;21.60;44.70;;;;;;3052977;19;4578;-27
2023/11/07 03:55:24;;;;;;;;;;;21.60;44.70;;;;;;3053352;19;4776;-27
2023/11/07 03:56:24;;;;;;;;;;;21.60;44.60;;;;;;3052708;19;4619;-27
2023/11/07 03:57:25;;;;;;;;;;;21.60;44.70;;;;;;3052772;19;4669;-27
2023/11/07 03:58:26;;;;;;;;;;;21.60;44.60;;;;;;3052826;19;4691;-27
2023/11/07 03:59:26;;;;;;;;;;;21.60;44.70;;;;;;3052217;19;4508;-27
2023/11/07 04:00:27;;;;;;;;;;;21.60;44.60;;;;;;3053209;19;4810;-27
2023/11/07 04:01:37;;;;;;;;;;;21.60;44.70;;;;;;3052918;19;4679;-27
2023/11/07 04:02:38;;;;;;;;;;;21.60;44.70;;;;;;3051507;19;11065;-27
2023/11/07 04:03:38;;;;;;;;;;;21.60;44.70;;;;;;3052322;19;4700;-27
2023/11/07 04:04:39;;;;;;;;;;;21.60;44.80;;;;;;3052598;19;4609;-27
2023/11/07 04:05:39;;;;;;;;;;;21.50;44.70;;;;;;3052921;19;4653;-27
2023/11/07 04:06:40;;;;;;;;;;;21.60;44.70;;;;;;3050963;19;4869;-27
2023/11/07 04:07:41;;;;;;;;;;;21.50;44.70;;;;;;3049719;19;4554;-27
2023/11/07 04:08:41;;;;;;;;;;;21.50;44.70;;;;;;3051970;19;4716;-27
2023/11/07 04:09:43;;;;;;;;;;;21.50;44.70;;;;;;3050760;19;4845;-27
2023/11/07 04:10:44;;;;;;;;;;;21.50;44.80;;;;;;3052952;19;4633;-27
2023/11/07 04:11:45;;;;;;;;;;;21.50;44.80;;;;;;3052527;19;4679;-27
2023/11/07 04:12:46;;;;;;;;;;;21.50;44.80;;;;;;3052509;19;4664;-27
2023/11/07 04:13:47;;;;;;;;;;;21.50;44.80;;;;;;3052227;19;4647;-27
2023/11/07 04:14:48;;;;;;;;;;;21.50;44.80;;;;;;3051982;19;4631;-27
2023/11/07 04:15:49;;;;;;;;;;;21.50;44.80;;;;;;3051431;19;4610;-27
2023/11/07 04:16:50;;;;;;;;;;;21.50;44.80;;;;;;3053457;19;4765;-27
2023/11/07 04:17:51;;;;;;;;;;;21.50;44.70;;;;;;3052715;19;4656;-27
2023/11/07 04:18:53;;;;;;;;;;;21.50;44.80;;;;;;3053565;19;4624;-27
2023/11/07 04:19:54;;;;;;;;;;;21.50;44.80;;;;;;3053459;19;4636;-27
2023/11/07 04:20:55;;;;;;;;;;;21.40;44.80;;;;;;3052270;19;4652;-27
2023/11/07 04:21:55;;;;;;;;;;;21.50;44.90;;;;;;3053014;19;4597;-26
2023/11/07 04:22:56;;;;;;;;;;;21.40;44.90;;;;;;3052135;19;4646;-27
2023/11/07 04:23:57;;;;;;;;;;;21.40;44.90;;;;;;3052483;19;4605;-27
2023/11/07 04:24:57;;;;;;;;;;;21.50;45.00;;;;;;3053339;19;4597;-26
2023/11/07 04:25:58;;;;;;;;;;;21.50;45.10;;;;;;3052716;19;5047;-27
2023/11/07 04:26:58;;;;;;;;;;;21.50;45.00;;;;;;3053034;19;4602;-27
2023/11/07 04:27:59;;;;;;;;;;;21.50;44.90;;;;;;3052497;19;4583;-27
2023/11/07 04:29:00;;;;;;;;;;;21.60;44.90;;;;;;3052110;19;4666;-27
2023/11/07 04:30:04;;;;;;;;;;;21.60;44.70;;;;;;3052865;19;4657;-27
2023/11/07 04:31:05;;;;;;;;;;;21.60;44.60;;;;;;3051255;19;4557;-27
2023/11/07 04:32:06;;;;;;;;;;;21.70;44.60;;;;;;3050465;19;4642;-27
2023/11/07 04:33:07;;;;;;;;;;;21.60;44.60;;;;;;3049732;19;21804;-27
2023/11/07 04:34:09;;;;;;;;;;;21.60;44.50;;;;;;3051185;19;4519;-27
2023/11/07 04:35:11;;;;;;;;;;;21.70;44.50;;;;;;3052308;19;4831;-27
2023/11/07 04:36:13;;;;;;;;;;;21.70;44.50;;;;;;3052523;19;4671;-27
2023/11/07 04:37:15;;;;;;;;;;;21.70;44.40;;;;;;3052970;19;3677;-27
2023/11/07 04:38:16;;;;;;;;;;;21.70;44.40;;;;;;3052768;19;4566;-27
2023/11/07 04:39:17;;;;;;;;;;;21.70;44.50;;;;;;3054182;19;4513;-27
2023/11/07 04:40:18;;;;;;;;;;;21.70;44.40;;;;;;3054791;19;4636;-27
2023/11/07 04:41:20;;;;;;;;;;;21.70;44.40;;;;;;3055395;19;4710;-27
2023/11/07 04:42:20;;;;;;;;;;;21.70;44.40;;;;;;3054242;19;4636;-27
2023/11/07 04:43:22;;;;;;;;;;;21.70;44.50;;;;;;3055055;19;4667;-27
2023/11/07 04:44:22;;;;;;;;;;;21.70;44.50;;;;;;3055556;19;4686;-27
2023/11/07 04:45:24;;;;;;;;;;;21.70;44.50;;;;;;3056125;19;4625;-27
2023/11/07 04:46:24;;;;;;;;;;;21.60;44.40;;;;;;3056300;19;4781;-27
2023/11/07 04:47:25;;;;;;;;;;;21.70;44.40;;;;;;3055138;19;4518;-27
2023/11/07 04:48:26;;;;;;;;;;;21.70;44.40;;;;;;3055335;19;4752;-27
2023/11/07 04:49:27;;;;;;;;;;;21.70;44.40;;;;;;3056476;19;4662;-27
2023/11/07 04:50:28;;;;;;;;;;;21.60;44.40;;;;;;3055780;19;4505;-27
2023/11/07 04:51:28;;;;;;;;;;;21.70;44.40;;;;;;3056151;19;4691;-27
2023/11/07 04:52:29;;;;;;;;;;;21.60;44.40;;;;;;3055010;19;4651;-27
2023/11/07 04:53:30;;;;;;;;;;;21.60;44.40;;;;;;3055147;19;4691;-27
2023/11/07 04:54:30;;;;;;;;;;;21.60;44.40;;;;;;3055766;19;4651;-27
2023/11/07 04:55:31;;;;;;;;;;;21.60;45.10;;;;;;3055193;19;4907;-27
2023/11/07 04:56:32;;;;;;;;;;;21.60;44.50;;;;;;3055308;19;4589;-27
2023/11/07 04:57:33;;;;;;;;;;;21.60;44.50;;;;;;3054532;19;4655;-27
2023/11/07 04:58:34;;;;;;;;;;;21.60;44.50;;;;;;3052557;19;4637;-27
2023/11/07 04:59:34;;;;;;;;;;;21.60;44.60;;;;;;3054865;19;4635;-27
2023/11/07 05:00:35;;;;;;;;;;;21.70;44.60;;;;;;3053876;19;4638;-27
2023/11/07 05:01:36;;;;;;;;;;;21.70;44.50;;;;;;3055168;19;4659;-27
2023/11/07 05:02:36;;;;;;;;;;;21.90;44.40;;;;;;3055259;19;4735;-29
2023/11/07 05:03:37;;;;;;;;;;;21.90;44.20;;;;;;3054290;19;4659;-30
2023/11/07 05:04:38;;;;;;;;;;;22.00;44.10;;;;;;3055233;19;4672;-30
2023/11/07 05:05:38;;;;;;;;;;;22.00;43.90;;;;;;3054229;19;4667;-30
2023/11/07 05:06:39;;;;;;;;;;;22.00;43.80;;;;;;3053484;19;4743;-30
2023/11/07 05:07:40;;;;;;;;;;;22.00;43.80;;;;;;3054875;19;4674;-30
2023/11/07 05:08:40;;;;;;;;;;;22.00;43.90;;;;;;3054189;19;4676;-29
2023/11/07 05:09:41;;;;;;;;;;;22.00;43.70;;;;;;3055372;19;4703;-30
2023/11/07 05:10:41;;;;;;;;;;;22.10;43.80;;;;;;3055418;19;4733;-30
2023/11/07 05:11:43;;;;;;;;;;;22.00;43.70;;;;;;3054839;19;4469;-30
2023/11/07 05:12:43;;;;;;;;;;;22.00;43.70;;;;;;3054693;19;4676;-29
2023/11/07 05:13:45;;;;;;;;;;;22.00;43.70;;;;;;3055019;19;4631;-30
2023/11/07 05:14:45;;;;;;;;;;;22.00;43.60;;;;;;3054587;19;4662;-30
2023/11/07 05:15:46;;;;;;;;;;;22.00;43.70;;;;;;3054851;19;4650;-30
2023/11/07 05:16:47;;;;;;;;;;;22.00;43.70;;;;;;3054052;19;4624;-29
2023/11/07 05:17:48;;;;;;;;;;;22.00;43.70;;;;;;3055504;19;4653;-30
2023/11/07 05:18:49;;;;;;;;;;;22.00;43.70;;;;;;3053885;19;4651;-30
2023/11/07 05:19:49;;;;;;;;;;;22.00;43.80;;;;;;3053399;19;5008;-30
2023/11/07 05:20:50;;;;;;;;;;;22.00;43.80;;;;;;3054288;19;4628;-30
2023/11/07 05:21:51;;;;;;;;;;;22.00;43.80;;;;;;3054513;19;4788;-29
2023/11/07 05:22:51;;;;;;;;;;;22.00;43.70;;;;;;3055201;19;4565;-30
2023/11/07 05:23:52;;;;;;;;;;;22.00;43.70;;;;;;3055128;19;5027;-30
2023/11/07 05:24:53;;;;;;;;;;;22.00;43.80;;;;;;3052995;19;4658;-30
2023/11/07 05:25:54;;;;;;;;;;;22.00;43.80;;;;;;3054071;19;4811;-30
2023/11/07 05:26:54;;;;;;;;;;;22.00;43.70;;;;;;3053354;19;4649;-29
2023/11/07 05:27:55;;;;;;;;;;;22.00;43.70;;;;;;3053786;19;4685;-30
2023/11/07 05:28:56;;;;;;;;;;;22.00;43.70;;;;;;3054714;19;4795;-30
2023/11/07 05:29:57;;;;;;;;;;;22.00;43.70;;;;;;3054456;19;4987;-30
2023/11/07 05:30:58;;;;;;;;;;;22.00;43.70;;;;;;3054655;19;4614;-30
2023/11/07 05:31:58;;;;;;;;;;;22.00;43.70;;;;;;3054314;19;4684;-30
2023/11/07 05:32:59;;;;;;;;;;;22.00;43.70;;;;;;3053640;19;4607;-29
2023/11/07 05:34:00;;;;;;;;;;;22.00;43.80;;;;;;3054102;19;4740;-30
2023/11/07 05:35:01;;;;;;;;;;;22.00;43.70;;;;;;3054421;19;4654;-30
2023/11/07 05:36:02;;;;;;;;;;;22.00;43.80;;;;;;3055114;19;4598;-30
2023/11/07 05:37:02;;;;;;;;;;;22.00;44.40;;;;;;3055006;19;4668;-30
2023/11/07 05:38:04;;;;;;;;;;;22.00;43.70;;;;;;3054099;19;4945;-30
2023/11/07 05:39:05;;;;;;;;;;;21.90;43.70;;;;;;3053711;19;4803;-30
2023/11/07 05:40:09;;;;;;;;;;;21.90;43.80;;;;;;3054345;19;4590;-30
2023/11/07 05:41:14;;;;;;;;;;;21.90;43.80;;;;;;3052764;19;4590;-29
2023/11/07 05:42:15;;;;;;;;;;;21.80;43.80;;;;;;3053435;19;4570;-29
2023/11/07 05:43:16;;;;;;;;;;;21.90;44.60;;;;;;3053211;19;4632;-30
2023/11/07 05:44:17;;;;;;;;;;;21.80;43.90;;;;;;3054719;19;4666;-30
2023/11/07 05:45:18;;;;;;;;;;;21.80;44.00;;;;;;3054532;19;4638;-29
2023/11/07 05:46:21;;;;;;;;;;;21.80;44.50;;;;;;3053944;19;4594;-30
2023/11/07 05:47:22;;;;;;;;;;;21.80;44.00;;;;;;3053803;19;4545;-30
2023/11/07 05:48:24;;;;;;;;;;;21.80;44.00;;;;;;3053082;19;4751;-30
2023/11/07 05:49:25;;;;;;;;;;;21.80;44.10;;;;;;3053795;19;4748;-30
2023/11/07 05:50:25;;;;;;;;;;;21.80;44.00;;;;;;3055587;19;4692;-30
2023/11/07 05:51:26;;;;;;;;;;;21.80;44.00;;;;;;3054625;19;4508;-30
2023/11/07 05:52:27;;;;;;;;;;;21.70;44.40;;;;;;3054779;19;4682;-29
2023/11/07 05:53:27;;;;;;;;;;;21.70;44.10;;;;;;3054755;19;4609;-30
2023/11/07 05:54:28;;;;;;;;;;;21.80;44.20;;;;;;3052975;19;4550;-30
2023/11/07 05:55:29;;;;;;;;;;;21.70;44.10;;;;;;3053796;19;4553;-30
2023/11/07 05:56:30;;;;;;;;;;;21.70;44.20;;;;;;3052087;19;4758;-29
2023/11/07 05:57:31;;;;;;;;;;;21.70;44.20;;;;;;3053226;19;4641;-30
2023/11/07 05:58:32;;;;;;;;;;;21.70;44.10;;;;;;3053527;19;4704;-30
2023/11/07 05:59:32;;;;;;;;;;;21.70;44.10;;;;;;3052237;19;4507;-30
2023/11/07 06:00:33;;;;;;;;;;;21.70;44.20;;;;;;3052561;19;4653;-30
2023/11/07 06:01:34;;;;;;;;;;;21.70;44.10;;;;;;3053350;19;4649;-29